sensor_id;sensor_type;location;lat;lon;timestamp;P1;durP1;ratioP1;P2;durP2;ratioP2
29958;SDS011;16815;51.100;6.516;2023-10-09T00:00:23;10.57;;;5.87;;
29958;SDS011;16815;51.100;6.516;2023-10-09T00:03:18;9.13;;;5.67;;
29958;SDS011;16815;51.100;6.516;2023-10-09T00:05:48;10.53;;;6.10;;
29958;SDS011;16815;51.100;6.516;2023-10-09T00:08:17;9.47;;;5.87;;
29958;SDS011;16815;51.100;6.516;2023-10-09T00:10:47;10.67;;;6.27;;
29958;SDS011;16815;51.100;6.516;2023-10-09T00:13:17;8.80;;;6.17;;
29958;SDS011;16815;51.100;6.516;2023-10-09T00:15:43;9.67;;;5.90;;
29958;SDS011;16815;51.100;6.516;2023-10-09T00:18:17;8.37;;;5.70;;
29958;SDS011;16815;51.100;6.516;2023-10-09T00:20:47;8.83;;;5.40;;
29958;SDS011;16815;51.100;6.516;2023-10-09T00:23:19;10.07;;;5.77;;
29958;SDS011;16815;51.100;6.516;2023-10-09T00:25:48;9.10;;;5.70;;
29958;SDS011;16815;51.100;6.516;2023-10-09T00:28:31;8.47;;;5.47;;
29958;SDS011;16815;51.100;6.516;2023-10-09T00:30:59;8.47;;;5.40;;
29958;SDS011;16815;51.100;6.516;2023-10-09T00:33:29;8.03;;;5.13;;
29958;SDS011;16815;51.100;6.516;2023-10-09T00:35:55;10.27;;;5.73;;
29958;SDS011;16815;51.100;6.516;2023-10-09T00:38:22;8.40;;;5.50;;
29958;SDS011;16815;51.100;6.516;2023-10-09T00:40:49;8.77;;;5.27;;
29958;SDS011;16815;51.100;6.516;2023-10-09T00:43:28;7.70;;;5.50;;
29958;SDS011;16815;51.100;6.516;2023-10-09T00:45:55;8.87;;;5.73;;
29958;SDS011;16815;51.100;6.516;2023-10-09T00:48:25;8.13;;;6.23;;
29958;SDS011;16815;51.100;6.516;2023-10-09T00:50:57;8.83;;;5.20;;
29958;SDS011;16815;51.100;6.516;2023-10-09T00:53:25;10.93;;;5.97;;
29958;SDS011;16815;51.100;6.516;2023-10-09T00:55:56;8.60;;;5.27;;
29958;SDS011;16815;51.100;6.516;2023-10-09T00:58:23;7.90;;;5.40;;
29958;SDS011;16815;51.100;6.516;2023-10-09T01:00:51;7.33;;;5.60;;
29958;SDS011;16815;51.100;6.516;2023-10-09T01:03:18;12.77;;;5.70;;
29958;SDS011;16815;51.100;6.516;2023-10-09T01:05:48;9.23;;;6.10;;
29958;SDS011;16815;51.100;6.516;2023-10-09T01:08:18;9.23;;;5.27;;
29958;SDS011;16815;51.100;6.516;2023-10-09T01:10:53;7.83;;;5.67;;
29958;SDS011;16815;51.100;6.516;2023-10-09T01:13:29;7.80;;;5.53;;
29958;SDS011;16815;51.100;6.516;2023-10-09T01:16:06;8.30;;;5.33;;
29958;SDS011;16815;51.100;6.516;2023-10-09T01:18:40;7.93;;;5.20;;
29958;SDS011;16815;51.100;6.516;2023-10-09T01:21:06;8.50;;;5.50;;
29958;SDS011;16815;51.100;6.516;2023-10-09T01:23:32;7.53;;;5.57;;
29958;SDS011;16815;51.100;6.516;2023-10-09T01:25:58;6.37;;;4.73;;
29958;SDS011;16815;51.100;6.516;2023-10-09T01:28:24;8.17;;;5.43;;
29958;SDS011;16815;51.100;6.516;2023-10-09T01:30:51;9.73;;;5.57;;
29958;SDS011;16815;51.100;6.516;2023-10-09T01:33:17;9.10;;;5.30;;
29958;SDS011;16815;51.100;6.516;2023-10-09T01:35:47;8.23;;;5.53;;
29958;SDS011;16815;51.100;6.516;2023-10-09T01:38:15;6.37;;;5.03;;
29958;SDS011;16815;51.100;6.516;2023-10-09T01:40:41;9.47;;;4.87;;
29958;SDS011;16815;51.100;6.516;2023-10-09T01:43:09;6.07;;;5.10;;
29958;SDS011;16815;51.100;6.516;2023-10-09T01:45:38;9.43;;;5.40;;
29958;SDS011;16815;51.100;6.516;2023-10-09T01:48:07;13.57;;;5.53;;
29958;SDS011;16815;51.100;6.516;2023-10-09T01:50:33;9.17;;;5.27;;
29958;SDS011;16815;51.100;6.516;2023-10-09T01:53:06;8.77;;;5.60;;
29958;SDS011;16815;51.100;6.516;2023-10-09T01:55:33;7.97;;;4.73;;
29958;SDS011;16815;51.100;6.516;2023-10-09T01:58:10;7.37;;;5.00;;
29958;SDS011;16815;51.100;6.516;2023-10-09T02:00:46;8.73;;;5.43;;
29958;SDS011;16815;51.100;6.516;2023-10-09T02:03:19;8.20;;;5.20;;
29958;SDS011;16815;51.100;6.516;2023-10-09T02:05:48;6.63;;;5.20;;
29958;SDS011;16815;51.100;6.516;2023-10-09T02:08:34;8.60;;;5.07;;
29958;SDS011;16815;51.100;6.516;2023-10-09T02:11:01;7.03;;;5.07;;
29958;SDS011;16815;51.100;6.516;2023-10-09T02:13:27;7.13;;;5.00;;
29958;SDS011;16815;51.100;6.516;2023-10-09T02:15:59;7.10;;;4.93;;
29958;SDS011;16815;51.100;6.516;2023-10-09T02:18:39;6.17;;;4.70;;
29958;SDS011;16815;51.100;6.516;2023-10-09T02:21:17;7.37;;;5.13;;
29958;SDS011;16815;51.100;6.516;2023-10-09T02:23:53;7.50;;;5.10;;
29958;SDS011;16815;51.100;6.516;2023-10-09T02:26:22;8.07;;;4.77;;
29958;SDS011;16815;51.100;6.516;2023-10-09T02:28:54;8.87;;;5.27;;
29958;SDS011;16815;51.100;6.516;2023-10-09T02:31:27;9.67;;;5.40;;
29958;SDS011;16815;51.100;6.516;2023-10-09T02:34:00;7.67;;;4.63;;
29958;SDS011;16815;51.100;6.516;2023-10-09T02:36:30;8.23;;;5.40;;
29958;SDS011;16815;51.100;6.516;2023-10-09T02:38:56;9.13;;;5.27;;
29958;SDS011;16815;51.100;6.516;2023-10-09T02:41:22;11.67;;;5.33;;
29958;SDS011;16815;51.100;6.516;2023-10-09T02:43:53;7.93;;;5.67;;
29958;SDS011;16815;51.100;6.516;2023-10-09T02:46:20;9.07;;;5.23;;
29958;SDS011;16815;51.100;6.516;2023-10-09T02:48:54;7.23;;;5.80;;
29958;SDS011;16815;51.100;6.516;2023-10-09T02:51:21;7.23;;;4.97;;
29958;SDS011;16815;51.100;6.516;2023-10-09T02:54:03;8.00;;;5.53;;
29958;SDS011;16815;51.100;6.516;2023-10-09T02:56:42;7.73;;;5.50;;
29958;SDS011;16815;51.100;6.516;2023-10-09T02:59:09;8.47;;;5.07;;
29958;SDS011;16815;51.100;6.516;2023-10-09T03:01:35;7.83;;;5.00;;
29958;SDS011;16815;51.100;6.516;2023-10-09T03:04:02;10.87;;;5.40;;
29958;SDS011;16815;51.100;6.516;2023-10-09T03:06:30;7.87;;;5.40;;
29958;SDS011;16815;51.100;6.516;2023-10-09T03:08:59;10.80;;;5.33;;
29958;SDS011;16815;51.100;6.516;2023-10-09T03:11:25;8.30;;;5.10;;
29958;SDS011;16815;51.100;6.516;2023-10-09T03:13:57;8.00;;;5.50;;
29958;SDS011;16815;51.100;6.516;2023-10-09T03:16:23;9.40;;;5.43;;
29958;SDS011;16815;51.100;6.516;2023-10-09T03:18:49;7.83;;;5.63;;
29958;SDS011;16815;51.100;6.516;2023-10-09T03:21:15;8.53;;;5.40;;
29958;SDS011;16815;51.100;6.516;2023-10-09T03:23:42;7.30;;;5.03;;
29958;SDS011;16815;51.100;6.516;2023-10-09T03:26:08;8.17;;;5.50;;
29958;SDS011;16815;51.100;6.516;2023-10-09T03:28:35;8.33;;;5.67;;
29958;SDS011;16815;51.100;6.516;2023-10-09T03:31:01;9.13;;;5.77;;
29958;SDS011;16815;51.100;6.516;2023-10-09T03:33:28;7.77;;;5.67;;
29958;SDS011;16815;51.100;6.516;2023-10-09T03:35:58;7.23;;;5.20;;
29958;SDS011;16815;51.100;6.516;2023-10-09T03:38:24;8.30;;;5.80;;
29958;SDS011;16815;51.100;6.516;2023-10-09T03:40:54;8.90;;;5.60;;
29958;SDS011;16815;51.100;6.516;2023-10-09T03:43:20;9.60;;;6.17;;
29958;SDS011;16815;51.100;6.516;2023-10-09T03:45:46;8.73;;;5.97;;
29958;SDS011;16815;51.100;6.516;2023-10-09T03:48:19;8.20;;;5.83;;
29958;SDS011;16815;51.100;6.516;2023-10-09T03:50:57;10.50;;;6.40;;
29958;SDS011;16815;51.100;6.516;2023-10-09T03:53:37;9.27;;;6.20;;
29958;SDS011;16815;51.100;6.516;2023-10-09T03:56:06;15.77;;;5.50;;
29958;SDS011;16815;51.100;6.516;2023-10-09T03:58:41;9.03;;;6.00;;
29958;SDS011;16815;51.100;6.516;2023-10-09T04:01:11;11.23;;;6.23;;
29958;SDS011;16815;51.100;6.516;2023-10-09T04:03:47;9.43;;;5.57;;
29958;SDS011;16815;51.100;6.516;2023-10-09T04:06:13;8.07;;;5.90;;
29958;SDS011;16815;51.100;6.516;2023-10-09T04:08:42;11.53;;;5.60;;
29958;SDS011;16815;51.100;6.516;2023-10-09T04:11:14;8.97;;;6.20;;
29958;SDS011;16815;51.100;6.516;2023-10-09T04:13:45;9.53;;;6.40;;
29958;SDS011;16815;51.100;6.516;2023-10-09T04:16:12;12.43;;;5.73;;
29958;SDS011;16815;51.100;6.516;2023-10-09T04:18:56;12.10;;;6.67;;
29958;SDS011;16815;51.100;6.516;2023-10-09T04:21:23;11.67;;;6.30;;
29958;SDS011;16815;51.100;6.516;2023-10-09T04:23:59;7.97;;;5.30;;
29958;SDS011;16815;51.100;6.516;2023-10-09T04:26:34;10.03;;;6.03;;
29958;SDS011;16815;51.100;6.516;2023-10-09T04:29:00;11.13;;;6.27;;
29958;SDS011;16815;51.100;6.516;2023-10-09T04:31:27;12.90;;;6.03;;
29958;SDS011;16815;51.100;6.516;2023-10-09T04:33:57;13.27;;;6.10;;
29958;SDS011;16815;51.100;6.516;2023-10-09T04:36:42;10.70;;;5.10;;
29958;SDS011;16815;51.100;6.516;2023-10-09T04:39:11;8.77;;;5.80;;
29958;SDS011;16815;51.100;6.516;2023-10-09T04:41:37;8.87;;;6.13;;
29958;SDS011;16815;51.100;6.516;2023-10-09T04:44:06;10.00;;;5.77;;
29958;SDS011;16815;51.100;6.516;2023-10-09T04:46:45;12.07;;;6.60;;
29958;SDS011;16815;51.100;6.516;2023-10-09T04:49:31;11.33;;;5.83;;
29958;SDS011;16815;51.100;6.516;2023-10-09T04:52:18;10.77;;;5.63;;
29958;SDS011;16815;51.100;6.516;2023-10-09T04:54:50;11.13;;;5.93;;
29958;SDS011;16815;51.100;6.516;2023-10-09T04:57:35;8.00;;;6.10;;
29958;SDS011;16815;51.100;6.516;2023-10-09T05:00:24;9.03;;;5.87;;
29958;SDS011;16815;51.100;6.516;2023-10-09T05:02:51;13.37;;;6.17;;
29958;SDS011;16815;51.100;6.516;2023-10-09T05:05:19;12.67;;;6.50;;
29958;SDS011;16815;51.100;6.516;2023-10-09T05:08:04;10.63;;;5.90;;
29958;SDS011;16815;51.100;6.516;2023-10-09T05:10:45;11.03;;;6.43;;
29958;SDS011;16815;51.100;6.516;2023-10-09T05:13:33;9.20;;;5.87;;
29958;SDS011;16815;51.100;6.516;2023-10-09T05:16:05;10.37;;;6.13;;
29958;SDS011;16815;51.100;6.516;2023-10-09T05:18:43;12.50;;;7.07;;
29958;SDS011;16815;51.100;6.516;2023-10-09T05:21:10;10.63;;;5.60;;
29958;SDS011;16815;51.100;6.516;2023-10-09T05:23:55;10.73;;;6.33;;
29958;SDS011;16815;51.100;6.516;2023-10-09T05:26:40;8.17;;;5.70;;
29958;SDS011;16815;51.100;6.516;2023-10-09T05:29:13;8.73;;;5.90;;
29958;SDS011;16815;51.100;6.516;2023-10-09T05:34:37;8.60;;;5.80;;
29958;SDS011;16815;51.100;6.516;2023-10-09T05:37:22;11.83;;;6.20;;
29958;SDS011;16815;51.100;6.516;2023-10-09T05:39:54;11.30;;;6.17;;
29958;SDS011;16815;51.100;6.516;2023-10-09T05:42:27;11.37;;;6.60;;
29958;SDS011;16815;51.100;6.516;2023-10-09T05:47:45;10.13;;;6.17;;
29958;SDS011;16815;51.100;6.516;2023-10-09T05:50:30;9.97;;;6.50;;
29958;SDS011;16815;51.100;6.516;2023-10-09T05:53:00;10.53;;;6.10;;
29958;SDS011;16815;51.100;6.516;2023-10-09T05:55:26;10.50;;;5.70;;
29958;SDS011;16815;51.100;6.516;2023-10-09T05:58:11;10.23;;;6.07;;
29958;SDS011;16815;51.100;6.516;2023-10-09T06:00:56;10.73;;;6.53;;
29958;SDS011;16815;51.100;6.516;2023-10-09T06:03:40;8.77;;;5.97;;
29958;SDS011;16815;51.100;6.516;2023-10-09T06:06:37;7.93;;;5.60;;
29958;SDS011;16815;51.100;6.516;2023-10-09T06:09:21;11.90;;;6.37;;
29958;SDS011;16815;51.100;6.516;2023-10-09T06:11:48;11.57;;;6.07;;
29958;SDS011;16815;51.100;6.516;2023-10-09T06:14:18;8.87;;;5.93;;
29958;SDS011;16815;51.100;6.516;2023-10-09T06:16:53;9.70;;;6.20;;
29958;SDS011;16815;51.100;6.516;2023-10-09T06:19:22;11.03;;;6.93;;
29958;SDS011;16815;51.100;6.516;2023-10-09T06:21:48;11.73;;;6.43;;
29958;SDS011;16815;51.100;6.516;2023-10-09T06:24:21;8.40;;;5.90;;
29958;SDS011;16815;51.100;6.516;2023-10-09T06:27:02;10.63;;;6.23;;
29958;SDS011;16815;51.100;6.516;2023-10-09T06:29:31;9.20;;;6.47;;
29958;SDS011;16815;51.100;6.516;2023-10-09T06:32:03;9.27;;;5.93;;
29958;SDS011;16815;51.100;6.516;2023-10-09T06:34:58;10.30;;;5.57;;
29958;SDS011;16815;51.100;6.516;2023-10-09T06:37:47;10.33;;;6.60;;
29958;SDS011;16815;51.100;6.516;2023-10-09T06:40:26;11.60;;;6.00;;
29958;SDS011;16815;51.100;6.516;2023-10-09T06:43:11;9.87;;;6.23;;
29958;SDS011;16815;51.100;6.516;2023-10-09T06:45:52;15.93;;;7.27;;
29958;SDS011;16815;51.100;6.516;2023-10-09T06:48:37;8.07;;;5.30;;
29958;SDS011;16815;51.100;6.516;2023-10-09T06:51:04;10.20;;;6.00;;
29958;SDS011;16815;51.100;6.516;2023-10-09T06:53:49;11.77;;;7.27;;
29958;SDS011;16815;51.100;6.516;2023-10-09T06:56:27;9.00;;;5.73;;
29958;SDS011;16815;51.100;6.516;2023-10-09T06:59:03;10.40;;;5.90;;
29958;SDS011;16815;51.100;6.516;2023-10-09T07:01:30;10.20;;;6.43;;
29958;SDS011;16815;51.100;6.516;2023-10-09T07:04:02;11.77;;;7.07;;
29958;SDS011;16815;51.100;6.516;2023-10-09T07:06:53;10.20;;;7.30;;
29958;SDS011;16815;51.100;6.516;2023-10-09T07:09:22;13.57;;;6.80;;
29958;SDS011;16815;51.100;6.516;2023-10-09T07:11:49;10.87;;;6.43;;
29958;SDS011;16815;51.100;6.516;2023-10-09T07:14:19;9.80;;;6.83;;
29958;SDS011;16815;51.100;6.516;2023-10-09T07:17:17;11.73;;;6.37;;
29958;SDS011;16815;51.100;6.516;2023-10-09T07:19:47;11.10;;;6.93;;
29958;SDS011;16815;51.100;6.516;2023-10-09T07:22:16;9.33;;;6.57;;
29958;SDS011;16815;51.100;6.516;2023-10-09T07:24:46;11.17;;;7.07;;
29958;SDS011;16815;51.100;6.516;2023-10-09T07:27:22;10.77;;;7.80;;
29958;SDS011;16815;51.100;6.516;2023-10-09T07:30:07;14.17;;;7.73;;
29958;SDS011;16815;51.100;6.516;2023-10-09T07:32:59;12.03;;;7.50;;
29958;SDS011;16815;51.100;6.516;2023-10-09T07:35:41;9.47;;;7.30;;
29958;SDS011;16815;51.100;6.516;2023-10-09T07:38:11;9.83;;;6.73;;
29958;SDS011;16815;51.100;6.516;2023-10-09T07:40:39;10.63;;;7.20;;
29958;SDS011;16815;51.100;6.516;2023-10-09T07:43:24;13.13;;;7.20;;
29958;SDS011;16815;51.100;6.516;2023-10-09T07:46:04;11.87;;;6.80;;
29958;SDS011;16815;51.100;6.516;2023-10-09T07:48:30;10.13;;;6.87;;
29958;SDS011;16815;51.100;6.516;2023-10-09T07:51:13;14.97;;;7.57;;
29958;SDS011;16815;51.100;6.516;2023-10-09T07:53:39;11.67;;;6.53;;
29958;SDS011;16815;51.100;6.516;2023-10-09T07:56:09;11.93;;;7.17;;
29958;SDS011;16815;51.100;6.516;2023-10-09T07:58:38;10.27;;;6.73;;
29958;SDS011;16815;51.100;6.516;2023-10-09T08:01:13;10.07;;;7.37;;
29958;SDS011;16815;51.100;6.516;2023-10-09T08:04:00;8.97;;;6.70;;
29958;SDS011;16815;51.100;6.516;2023-10-09T08:06:49;9.83;;;6.50;;
29958;SDS011;16815;51.100;6.516;2023-10-09T08:09:15;11.73;;;6.53;;
29958;SDS011;16815;51.100;6.516;2023-10-09T08:11:42;11.73;;;6.93;;
29958;SDS011;16815;51.100;6.516;2023-10-09T08:14:11;12.97;;;7.47;;
29958;SDS011;16815;51.100;6.516;2023-10-09T08:16:46;11.17;;;6.80;;
29958;SDS011;16815;51.100;6.516;2023-10-09T08:19:13;11.63;;;6.70;;
29958;SDS011;16815;51.100;6.516;2023-10-09T08:21:57;12.47;;;7.27;;
29958;SDS011;16815;51.100;6.516;2023-10-09T08:25:02;9.63;;;7.07;;
29958;SDS011;16815;51.100;6.516;2023-10-09T08:27:28;13.27;;;6.20;;
29958;SDS011;16815;51.100;6.516;2023-10-09T08:30:01;12.07;;;7.00;;
29958;SDS011;16815;51.100;6.516;2023-10-09T08:32:42;11.30;;;6.73;;
29958;SDS011;16815;51.100;6.516;2023-10-09T08:35:25;12.57;;;6.67;;
29958;SDS011;16815;51.100;6.516;2023-10-09T08:37:57;9.77;;;6.50;;
29958;SDS011;16815;51.100;6.516;2023-10-09T08:40:31;12.53;;;7.03;;
29958;SDS011;16815;51.100;6.516;2023-10-09T08:42:59;9.13;;;6.43;;
29958;SDS011;16815;51.100;6.516;2023-10-09T08:45:28;12.77;;;6.73;;
29958;SDS011;16815;51.100;6.516;2023-10-09T08:47:54;10.80;;;7.10;;
29958;SDS011;16815;51.100;6.516;2023-10-09T08:50:20;10.13;;;6.90;;
29958;SDS011;16815;51.100;6.516;2023-10-09T08:52:47;11.70;;;6.63;;
29958;SDS011;16815;51.100;6.516;2023-10-09T08:55:14;13.43;;;6.70;;
29958;SDS011;16815;51.100;6.516;2023-10-09T08:57:42;10.80;;;7.10;;
29958;SDS011;16815;51.100;6.516;2023-10-09T09:00:09;11.70;;;6.33;;
29958;SDS011;16815;51.100;6.516;2023-10-09T09:02:46;9.97;;;6.53;;
29958;SDS011;16815;51.100;6.516;2023-10-09T09:05:21;13.27;;;7.43;;
29958;SDS011;16815;51.100;6.516;2023-10-09T09:07:54;12.57;;;6.80;;
29958;SDS011;16815;51.100;6.516;2023-10-09T09:10:30;10.27;;;6.97;;
29958;SDS011;16815;51.100;6.516;2023-10-09T09:13:14;14.17;;;6.77;;
29958;SDS011;16815;51.100;6.516;2023-10-09T09:15:46;9.83;;;6.70;;
29958;SDS011;16815;51.100;6.516;2023-10-09T09:18:12;9.03;;;6.27;;
29958;SDS011;16815;51.100;6.516;2023-10-09T09:20:42;11.00;;;6.57;;
29958;SDS011;16815;51.100;6.516;2023-10-09T09:23:11;10.73;;;6.67;;
29958;SDS011;16815;51.100;6.516;2023-10-09T09:28:09;12.10;;;6.83;;
29958;SDS011;16815;51.100;6.516;2023-10-09T09:30:37;12.03;;;7.10;;
29958;SDS011;16815;51.100;6.516;2023-10-09T09:33:18;11.77;;;6.63;;
29958;SDS011;16815;51.100;6.516;2023-10-09T09:36:03;16.03;;;7.00;;
29958;SDS011;16815;51.100;6.516;2023-10-09T09:38:31;11.87;;;6.47;;
29958;SDS011;16815;51.100;6.516;2023-10-09T09:41:12;11.57;;;6.53;;
29958;SDS011;16815;51.100;6.516;2023-10-09T09:43:48;9.10;;;6.03;;
29958;SDS011;16815;51.100;6.516;2023-10-09T09:46:15;10.27;;;6.07;;
29958;SDS011;16815;51.100;6.516;2023-10-09T09:48:41;11.23;;;6.40;;
29958;SDS011;16815;51.100;6.516;2023-10-09T09:51:11;11.97;;;6.67;;
29958;SDS011;16815;51.100;6.516;2023-10-09T09:53:40;10.03;;;6.00;;
29958;SDS011;16815;51.100;6.516;2023-10-09T09:56:06;11.90;;;6.70;;
29958;SDS011;16815;51.100;6.516;2023-10-09T09:58:38;10.47;;;5.70;;
29958;SDS011;16815;51.100;6.516;2023-10-09T10:01:08;9.53;;;6.70;;
29958;SDS011;16815;51.100;6.516;2023-10-09T10:03:48;12.80;;;6.07;;
29958;SDS011;16815;51.100;6.516;2023-10-09T10:06:17;11.03;;;6.60;;
29958;SDS011;16815;51.100;6.516;2023-10-09T10:08:44;10.87;;;6.43;;
29958;SDS011;16815;51.100;6.516;2023-10-09T10:14:00;10.10;;;5.57;;
29958;SDS011;16815;51.100;6.516;2023-10-09T10:16:31;13.77;;;6.47;;
29958;SDS011;16815;51.100;6.516;2023-10-09T10:21:35;10.13;;;5.67;;
29958;SDS011;16815;51.100;6.516;2023-10-09T10:24:48;9.07;;;5.57;;
29958;SDS011;16815;51.100;6.516;2023-10-09T10:35:34;10.73;;;5.97;;
29958;SDS011;16815;51.100;6.516;2023-10-09T10:38:22;8.40;;;5.23;;
29958;SDS011;16815;51.100;6.516;2023-10-09T10:40:48;9.17;;;5.47;;
29958;SDS011;16815;51.100;6.516;2023-10-09T10:43:22;11.17;;;5.30;;
29958;SDS011;16815;51.100;6.516;2023-10-09T10:46:04;10.00;;;5.60;;
29958;SDS011;16815;51.100;6.516;2023-10-09T10:48:38;8.83;;;5.40;;
29958;SDS011;16815;51.100;6.516;2023-10-09T10:51:05;9.80;;;5.77;;
29958;SDS011;16815;51.100;6.516;2023-10-09T10:53:31;10.00;;;5.47;;
29958;SDS011;16815;51.100;6.516;2023-10-09T10:56:12;9.40;;;6.03;;
29958;SDS011;16815;51.100;6.516;2023-10-09T10:58:41;10.57;;;5.47;;
29958;SDS011;16815;51.100;6.516;2023-10-09T11:01:34;8.37;;;5.53;;
29958;SDS011;16815;51.100;6.516;2023-10-09T11:04:24;9.13;;;5.77;;
29958;SDS011;16815;51.100;6.516;2023-10-09T11:06:57;8.87;;;5.33;;
29958;SDS011;16815;51.100;6.516;2023-10-09T11:09:46;9.83;;;6.10;;
29958;SDS011;16815;51.100;6.516;2023-10-09T11:15:29;9.43;;;5.90;;
29958;SDS011;16815;51.100;6.516;2023-10-09T11:20:43;9.52;;;6.35;;
29958;SDS011;16815;51.100;6.516;2023-10-09T11:23:42;10.70;;;5.90;;
29958;SDS011;16815;51.100;6.516;2023-10-09T11:26:17;10.23;;;6.30;;
29958;SDS011;16815;51.100;6.516;2023-10-09T11:29:07;11.50;;;6.13;;
29958;SDS011;16815;51.100;6.516;2023-10-09T11:31:57;9.27;;;6.50;;
29958;SDS011;16815;51.100;6.516;2023-10-09T11:34:24;8.67;;;6.37;;
29958;SDS011;16815;51.100;6.516;2023-10-09T11:37:00;10.03;;;6.33;;
29958;SDS011;16815;51.100;6.516;2023-10-09T11:39:27;13.20;;;7.03;;
29958;SDS011;16815;51.100;6.516;2023-10-09T11:42:00;11.30;;;7.07;;
29958;SDS011;16815;51.100;6.516;2023-10-09T11:44:35;9.77;;;6.50;;
29958;SDS011;16815;51.100;6.516;2023-10-09T11:47:04;10.73;;;6.73;;
29958;SDS011;16815;51.100;6.516;2023-10-09T11:49:49;11.00;;;6.53;;
29958;SDS011;16815;51.100;6.516;2023-10-09T11:52:23;9.07;;;6.87;;
29958;SDS011;16815;51.100;6.516;2023-10-09T11:55:10;9.33;;;6.13;;
29958;SDS011;16815;51.100;6.516;2023-10-09T11:57:41;9.07;;;6.20;;
29958;SDS011;16815;51.100;6.516;2023-10-09T12:00:07;11.43;;;7.10;;
29958;SDS011;16815;51.100;6.516;2023-10-09T12:02:52;8.67;;;6.27;;
29958;SDS011;16815;51.100;6.516;2023-10-09T12:05:18;8.53;;;5.80;;
29958;SDS011;16815;51.100;6.516;2023-10-09T12:07:47;14.77;;;6.10;;
29958;SDS011;16815;51.100;6.516;2023-10-09T12:10:19;9.47;;;6.30;;
29958;SDS011;16815;51.100;6.516;2023-10-09T12:12:50;10.33;;;6.53;;
29958;SDS011;16815;51.100;6.516;2023-10-09T12:15:16;10.00;;;6.40;;
29958;SDS011;16815;51.100;6.516;2023-10-09T12:17:45;8.60;;;5.90;;
29958;SDS011;16815;51.100;6.516;2023-10-09T12:20:15;11.27;;;5.63;;
29958;SDS011;16815;51.100;6.516;2023-10-09T12:23:00;8.00;;;5.20;;
29958;SDS011;16815;51.100;6.516;2023-10-09T12:25:26;9.17;;;5.73;;
29958;SDS011;16815;51.100;6.516;2023-10-09T12:27:56;11.27;;;6.13;;
29958;SDS011;16815;51.100;6.516;2023-10-09T12:30:22;7.93;;;5.88;;
29958;SDS011;16815;51.100;6.516;2023-10-09T12:32:57;12.17;;;6.37;;
29958;SDS011;16815;51.100;6.516;2023-10-09T12:35:24;12.17;;;6.07;;
29958;SDS011;16815;51.100;6.516;2023-10-09T12:37:53;10.00;;;6.03;;
29958;SDS011;16815;51.100;6.516;2023-10-09T12:40:23;8.23;;;5.80;;
29958;SDS011;16815;51.100;6.516;2023-10-09T12:42:52;11.50;;;6.07;;
29958;SDS011;16815;51.100;6.516;2023-10-09T12:45:18;8.05;;;5.68;;
29958;SDS011;16815;51.100;6.516;2023-10-09T12:47:54;8.07;;;6.05;;
29958;SDS011;16815;51.100;6.516;2023-10-09T12:50:30;9.20;;;5.65;;
29958;SDS011;16815;51.100;6.516;2023-10-09T12:53:00;9.07;;;5.68;;
29958;SDS011;16815;51.100;6.516;2023-10-09T12:55:38;9.30;;;5.93;;
29958;SDS011;16815;51.100;6.516;2023-10-09T12:58:08;10.53;;;6.10;;
29958;SDS011;16815;51.100;6.516;2023-10-09T13:00:35;8.00;;;5.68;;
29958;SDS011;16815;51.100;6.516;2023-10-09T13:03:04;9.45;;;5.38;;
29958;SDS011;16815;51.100;6.516;2023-10-09T13:05:39;11.18;;;5.45;;
29958;SDS011;16815;51.100;6.516;2023-10-09T13:08:11;8.80;;;5.68;;
29958;SDS011;16815;51.100;6.516;2023-10-09T13:10:37;10.37;;;5.60;;
29958;SDS011;16815;51.100;6.516;2023-10-09T13:13:03;8.55;;;5.40;;
29958;SDS011;16815;51.100;6.516;2023-10-09T13:15:31;10.27;;;5.78;;
29958;SDS011;16815;51.100;6.516;2023-10-09T13:18:07;7.57;;;5.70;;
29958;SDS011;16815;51.100;6.516;2023-10-09T13:20:33;9.30;;;5.82;;
29958;SDS011;16815;51.100;6.516;2023-10-09T13:23:01;10.00;;;5.63;;
29958;SDS011;16815;51.100;6.516;2023-10-09T13:25:27;6.82;;;5.32;;
29958;SDS011;16815;51.100;6.516;2023-10-09T13:28:04;10.43;;;5.38;;
29958;SDS011;16815;51.100;6.516;2023-10-09T13:30:30;9.85;;;4.95;;
29958;SDS011;16815;51.100;6.516;2023-10-09T13:33:04;8.87;;;5.30;;
29958;SDS011;16815;51.100;6.516;2023-10-09T13:35:30;6.43;;;5.00;;
29958;SDS011;16815;51.100;6.516;2023-10-09T13:38:02;9.17;;;5.47;;
29958;SDS011;16815;51.100;6.516;2023-10-09T13:40:33;8.97;;;5.50;;
29958;SDS011;16815;51.100;6.516;2023-10-09T13:43:02;9.40;;;5.37;;
29958;SDS011;16815;51.100;6.516;2023-10-09T13:45:28;7.53;;;5.10;;
29958;SDS011;16815;51.100;6.516;2023-10-09T13:47:55;7.03;;;5.23;;
29958;SDS011;16815;51.100;6.516;2023-10-09T13:50:25;8.83;;;5.17;;
29958;SDS011;16815;51.100;6.516;2023-10-09T13:52:58;8.63;;;5.53;;
29958;SDS011;16815;51.100;6.516;2023-10-09T13:55:24;10.97;;;4.60;;
29958;SDS011;16815;51.100;6.516;2023-10-09T13:57:57;7.37;;;5.20;;
29958;SDS011;16815;51.100;6.516;2023-10-09T14:00:23;6.93;;;5.23;;
29958;SDS011;16815;51.100;6.516;2023-10-09T14:02:59;9.50;;;5.80;;
29958;SDS011;16815;51.100;6.516;2023-10-09T14:05:37;8.53;;;5.63;;
29958;SDS011;16815;51.100;6.516;2023-10-09T14:08:09;10.90;;;5.80;;
29958;SDS011;16815;51.100;6.516;2023-10-09T14:10:38;11.80;;;5.50;;
29958;SDS011;16815;51.100;6.516;2023-10-09T14:13:04;7.37;;;5.23;;
29958;SDS011;16815;51.100;6.516;2023-10-09T14:15:37;8.73;;;5.30;;
29958;SDS011;16815;51.100;6.516;2023-10-09T14:18:06;9.33;;;5.63;;
29958;SDS011;16815;51.100;6.516;2023-10-09T14:20:34;9.63;;;5.37;;
29958;SDS011;16815;51.100;6.516;2023-10-09T14:23:00;9.50;;;5.10;;
29958;SDS011;16815;51.100;6.516;2023-10-09T14:25:34;9.47;;;6.23;;
29958;SDS011;16815;51.100;6.516;2023-10-09T14:28:08;9.20;;;5.73;;
29958;SDS011;16815;51.100;6.516;2023-10-09T14:30:35;9.73;;;6.00;;
29958;SDS011;16815;51.100;6.516;2023-10-09T14:33:12;7.40;;;5.30;;
29958;SDS011;16815;51.100;6.516;2023-10-09T14:35:42;7.87;;;5.70;;
29958;SDS011;16815;51.100;6.516;2023-10-09T14:38:10;10.43;;;5.43;;
29958;SDS011;16815;51.100;6.516;2023-10-09T14:40:43;11.53;;;5.90;;
29958;SDS011;16815;51.100;6.516;2023-10-09T14:43:09;9.43;;;5.93;;
29958;SDS011;16815;51.100;6.516;2023-10-09T14:45:45;9.93;;;5.97;;
29958;SDS011;16815;51.100;6.516;2023-10-09T14:48:13;11.57;;;6.37;;
29958;SDS011;16815;51.100;6.516;2023-10-09T14:50:45;10.27;;;6.43;;
29958;SDS011;16815;51.100;6.516;2023-10-09T14:53:12;8.83;;;5.83;;
29958;SDS011;16815;51.100;6.516;2023-10-09T14:55:40;9.53;;;6.17;;
29958;SDS011;16815;51.100;6.516;2023-10-09T14:58:09;9.03;;;5.60;;
29958;SDS011;16815;51.100;6.516;2023-10-09T15:00:36;8.07;;;5.67;;
29958;SDS011;16815;51.100;6.516;2023-10-09T15:03:03;7.77;;;5.30;;
29958;SDS011;16815;51.100;6.516;2023-10-09T15:05:29;12.37;;;6.10;;
29958;SDS011;16815;51.100;6.516;2023-10-09T15:07:58;7.67;;;5.33;;
29958;SDS011;16815;51.100;6.516;2023-10-09T15:10:25;7.03;;;5.53;;
29958;SDS011;16815;51.100;6.516;2023-10-09T15:12:53;8.50;;;5.27;;
29958;SDS011;16815;51.100;6.516;2023-10-09T15:15:19;9.10;;;5.97;;
29958;SDS011;16815;51.100;6.516;2023-10-09T15:17:50;8.37;;;5.07;;
29958;SDS011;16815;51.100;6.516;2023-10-09T15:20:16;12.80;;;6.00;;
29958;SDS011;16815;51.100;6.516;2023-10-09T15:22:43;10.17;;;5.93;;
29958;SDS011;16815;51.100;6.516;2023-10-09T15:25:10;8.67;;;5.57;;
29958;SDS011;16815;51.100;6.516;2023-10-09T15:27:40;8.93;;;6.07;;
29958;SDS011;16815;51.100;6.516;2023-10-09T15:30:06;7.27;;;5.53;;
29958;SDS011;16815;51.100;6.516;2023-10-09T15:32:39;8.47;;;5.63;;
29958;SDS011;16815;51.100;6.516;2023-10-09T15:35:05;7.87;;;5.43;;
29958;SDS011;16815;51.100;6.516;2023-10-09T15:37:31;9.87;;;6.10;;
29958;SDS011;16815;51.100;6.516;2023-10-09T15:39:57;9.80;;;5.97;;
29958;SDS011;16815;51.100;6.516;2023-10-09T15:42:23;8.93;;;5.27;;